Terminal Aerodrome Forecast
Issued by NWS

Home | Current Version | Previous Version | Graphics & Text | Print | Product List | Glossary On
Versions: 1 2 3 4 5 6 7 8 9 10 11 12 13
036
FTUS43 KLSX 201724
TAFSUS
TAF
KSUS 201724Z 2018/2118 21012G20KT P6SM FEW250
     FM210000 19008KT P6SM FEW250
     FM210300 20010KT P6SM FEW250 WS014/24040KT
     FM211400 22009KT P6SM BKN250
     FM211700 27008KT P6SM SCT150=

USA.gov is the U.S. government's official web portal to all federal, state and local government web resources and services.